createdAt,value
2022-10-15T00:02:02.296Z,407.93
2022-10-15T00:07:09.496Z,406.78
2022-10-15T00:12:16.639Z,406.71
2022-10-15T00:17:24.346Z,406.85
2022-10-15T00:22:30.990Z,407.43
2022-10-15T00:27:38.205Z,407.38
2022-10-15T00:32:45.409Z,406.71
2022-10-15T00:37:52.654Z,407.19
2022-10-15T00:42:59.812Z,407.94
2022-10-15T00:48:07.050Z,407.69
2022-10-15T00:53:14.210Z,407.01
2022-10-15T00:58:21.439Z,406.18
2022-10-15T01:03:28.700Z,405.39
2022-10-15T01:08:35.903Z,404.57
2022-10-15T01:13:43.154Z,405.39
2022-10-15T01:18:50.377Z,405.74
2022-10-15T01:23:57.559Z,406.48
2022-10-15T01:29:04.870Z,406.23
2022-10-15T01:34:14.970Z,405.38
2022-10-15T01:39:19.386Z,403.14
2022-10-15T01:44:26.563Z,403.87
2022-10-15T01:49:33.813Z,403.99
2022-10-15T01:54:40.989Z,404.14
2022-10-15T01:59:48.199Z,405.48
2022-10-15T02:04:55.421Z,404.70
2022-10-15T02:10:02.612Z,404.64
2022-10-15T02:15:09.813Z,405.48
2022-10-15T02:20:17.000Z,405.73
2022-10-15T02:25:24.220Z,405.50
2022-10-15T02:30:31.437Z,405.32
2022-10-15T02:35:38.678Z,405.91
2022-10-15T02:40:47.674Z,406.46
2022-10-15T02:45:54.894Z,406.76
2022-10-15T02:51:02.105Z,408.21
2022-10-15T02:56:09.282Z,407.41
2022-10-15T03:01:16.538Z,408.14
2022-10-15T03:06:23.606Z,407.82
2022-10-15T03:11:30.785Z,408.31
2022-10-15T03:16:37.935Z,409.33
2022-10-15T03:21:45.120Z,409.70
2022-10-15T03:26:52.300Z,409.87
2022-10-15T03:31:59.507Z,409.97
2022-10-15T03:37:06.803Z,409.71
2022-10-15T03:42:13.986Z,408.33
2022-10-15T03:47:21.195Z,407.94
2022-10-15T03:52:28.453Z,407.93
2022-10-15T03:57:35.623Z,407.80
2022-10-15T04:02:42.850Z,408.34
2022-10-15T04:07:50.073Z,407.74
2022-10-15T04:12:57.300Z,408.09
2022-10-15T04:18:04.556Z,408.25
2022-10-15T04:23:11.777Z,408.63
2022-10-15T04:28:19.055Z,408.35
2022-10-15T04:33:26.289Z,408.76
2022-10-15T04:38:33.494Z,408.65
2022-10-15T04:43:40.646Z,408.22
2022-10-15T04:48:47.934Z,408.54
2022-10-15T04:53:55.219Z,408.85
2022-10-15T04:59:02.403Z,408.83
2022-10-15T05:04:09.630Z,409.48
2022-10-15T05:09:16.909Z,408.91
2022-10-15T05:14:24.088Z,409.40
2022-10-15T05:19:31.344Z,409.04
2022-10-15T05:24:38.602Z,408.70
2022-10-15T05:29:45.712Z,408.65
2022-10-15T05:34:52.948Z,408.56
2022-10-15T05:40:00.177Z,407.88
2022-10-15T05:45:07.405Z,407.77
2022-10-15T05:50:14.607Z,407.67
2022-10-15T05:55:21.882Z,407.25
2022-10-15T06:00:29.085Z,406.68
2022-10-15T06:05:36.259Z,405.67
2022-10-15T06:10:43.485Z,405.52
2022-10-15T06:15:50.673Z,405.83
2022-10-15T06:20:57.935Z,404.99
2022-10-15T06:26:05.404Z,403.56
2022-10-15T06:31:12.498Z,403.47
2022-10-15T06:36:19.704Z,402.05
2022-10-15T06:41:27.165Z,401.67
2022-10-15T06:46:34.132Z,403.03
2022-10-15T06:51:41.339Z,402.66
2022-10-15T06:56:48.792Z,401.48
2022-10-15T07:01:56.021Z,400.73
2022-10-15T07:07:03.259Z,400.44
2022-10-15T07:12:10.487Z,399.12
2022-10-15T07:17:17.659Z,397.27
2022-10-15T07:22:25.099Z,397.13
2022-10-15T07:27:32.068Z,396.09
2022-10-15T07:32:39.265Z,395.95
2022-10-15T07:37:46.441Z,396.79
2022-10-15T07:42:53.729Z,397.27
2022-10-15T07:48:00.881Z,396.84
2022-10-15T07:53:08.068Z,397.34
2022-10-15T07:58:15.300Z,397.79
2022-10-15T08:03:22.485Z,397.03
2022-10-15T08:08:32.443Z,396.45
2022-10-15T08:13:40.833Z,395.91
2022-10-15T08:18:48.141Z,395.86
2022-10-15T08:23:55.293Z,396.27
2022-10-15T08:29:02.604Z,396.33
2022-10-15T08:34:09.693Z,396.54
2022-10-15T08:39:16.872Z,396.08
2022-10-15T08:44:24.151Z,396.25
2022-10-15T08:49:31.317Z,395.88
2022-10-15T08:54:38.498Z,395.39
2022-10-15T08:59:45.729Z,394.87
2022-10-15T09:04:52.978Z,394.32
2022-10-15T09:10:00.151Z,394.94
2022-10-15T09:15:07.394Z,395.32
2022-10-15T09:20:14.558Z,394.74
2022-10-15T09:25:21.762Z,394.89
2022-10-15T09:30:28.995Z,395.09
2022-10-15T09:35:36.426Z,394.32
2022-10-15T09:40:43.670Z,394.42
2022-10-15T09:45:50.865Z,394.01
2022-10-15T09:50:58.074Z,394.10
2022-10-15T09:56:05.291Z,394.51
2022-10-15T10:01:12.520Z,394.57
2022-10-15T10:06:19.701Z,394.54
2022-10-15T10:11:26.894Z,394.37
2022-10-15T10:16:34.184Z,393.96
2022-10-15T10:21:41.333Z,393.76
2022-10-15T10:26:48.670Z,393.27
2022-10-15T10:31:55.935Z,393.68
2022-10-15T10:37:03.145Z,393.35
2022-10-15T10:42:10.360Z,393.76
2022-10-15T10:47:17.531Z,394.15
2022-10-15T10:52:24.776Z,394.64
2022-10-15T10:57:31.954Z,394.38
2022-10-15T11:02:39.193Z,394.62
2022-10-15T11:07:46.542Z,394.25
2022-10-15T11:12:53.783Z,394.16
2022-10-15T11:18:01.013Z,394.39
2022-10-15T11:23:08.209Z,394.74
2022-10-15T11:28:15.379Z,395.07
2022-10-15T11:33:24.050Z,396.24
2022-10-15T11:38:31.229Z,395.05
2022-10-15T11:43:38.440Z,393.79
2022-10-15T11:48:45.637Z,393.35
2022-10-15T11:53:53.858Z,394.05
2022-10-15T11:59:01.046Z,395.40
2022-10-15T12:04:08.358Z,394.84
2022-10-15T12:09:15.489Z,394.71
2022-10-15T12:14:22.683Z,395.00
2022-10-15T12:19:29.924Z,395.31
2022-10-15T12:24:37.092Z,396.84
2022-10-15T12:29:44.294Z,396.84
2022-10-15T12:34:51.507Z,398.72
2022-10-15T12:39:58.627Z,399.96
2022-10-15T12:45:05.902Z,400.90
2022-10-15T12:50:13.751Z,401.01
2022-10-15T12:55:20.962Z,401.91
2022-10-15T13:00:28.357Z,401.37
2022-10-15T13:05:35.566Z,402.11
2022-10-15T13:10:42.806Z,402.77
2022-10-15T13:15:52.028Z,403.13
2022-10-15T13:20:57.287Z,403.26
2022-10-15T13:26:04.480Z,403.84
2022-10-15T13:31:11.751Z,403.33
2022-10-15T13:36:19.005Z,403.62
2022-10-15T13:41:26.179Z,403.39
2022-10-15T13:46:33.400Z,403.83
2022-10-15T13:51:40.620Z,403.69
2022-10-15T13:56:50.298Z,403.86
2022-10-15T14:01:55.002Z,404.24
2022-10-15T14:07:02.865Z,403.58
2022-10-15T14:12:09.419Z,403.39
2022-10-15T14:17:16.587Z,403.74
2022-10-15T14:22:24.060Z,403.68
2022-10-15T14:27:31.236Z,404.19
2022-10-15T14:32:38.451Z,403.55
2022-10-15T14:37:45.679Z,403.11
2022-10-15T14:42:52.869Z,403.87
2022-10-15T14:48:00.101Z,403.35
2022-10-15T14:53:07.408Z,403.72
2022-10-15T14:58:14.686Z,403.71
2022-10-15T15:03:21.949Z,403.83
2022-10-15T15:08:29.130Z,404.02
2022-10-15T15:13:36.365Z,403.57
2022-10-15T15:18:43.588Z,404.00
2022-10-15T15:23:50.820Z,404.43
2022-10-15T15:29:00.739Z,403.49
2022-10-15T15:34:07.912Z,403.31
2022-10-15T15:39:15.267Z,403.27
2022-10-15T15:44:22.490Z,403.33
2022-10-15T15:49:29.687Z,403.88
2022-10-15T15:54:36.974Z,403.12
2022-10-15T15:59:44.091Z,402.69
2022-10-15T16:04:51.299Z,402.36
2022-10-15T16:09:58.502Z,402.34
2022-10-15T16:15:07.854Z,402.95
2022-10-15T16:20:12.928Z,402.91
2022-10-15T16:25:20.178Z,401.96
2022-10-15T16:30:27.320Z,401.83
2022-10-15T16:35:34.528Z,400.99
2022-10-15T16:40:41.822Z,400.55
2022-10-15T16:45:48.957Z,399.82
2022-10-15T16:50:56.155Z,400.18
2022-10-15T16:56:03.369Z,398.71
2022-10-15T17:01:10.540Z,397.57
2022-10-15T17:06:17.767Z,396.48
2022-10-15T17:11:25.169Z,395.59
2022-10-15T17:16:32.384Z,394.36
2022-10-15T17:21:42.447Z,393.72
2022-10-15T17:26:47.514Z,393.15
2022-10-15T17:31:54.913Z,392.37
2022-10-15T17:37:02.422Z,393.00
2022-10-15T17:42:09.766Z,392.64
2022-10-15T17:47:16.920Z,392.45
2022-10-15T17:52:24.156Z,392.88
2022-10-15T17:57:31.667Z,392.68
2022-10-15T18:02:39.315Z,391.67
2022-10-15T18:07:46.971Z,390.93
2022-10-15T18:12:54.323Z,389.86
2022-10-15T18:18:01.791Z,389.76
2022-10-15T18:23:11.458Z,390.33
2022-10-15T18:28:19.127Z,390.63
2022-10-15T18:33:26.785Z,390.44
2022-10-15T18:38:34.295Z,390.73
2022-10-15T18:43:43.163Z,391.40
2022-10-15T18:48:50.655Z,390.60
2022-10-15T18:53:58.163Z,390.12
2022-10-15T18:59:05.625Z,390.31
2022-10-15T19:04:13.081Z,390.86
2022-10-15T19:09:20.394Z,390.48
2022-10-15T19:14:27.933Z,391.07
2022-10-15T19:19:35.267Z,391.64
2022-10-15T19:24:42.438Z,390.62
2022-10-15T19:29:49.656Z,390.36
2022-10-15T19:34:57.136Z,390.14
2022-10-15T19:40:04.443Z,389.07
2022-10-15T19:45:11.701Z,389.49
2022-10-15T19:50:19.055Z,388.82
2022-10-15T19:55:26.455Z,388.39
2022-10-15T20:00:34.002Z,387.40
2022-10-15T20:05:41.349Z,387.20
2022-10-15T20:10:48.543Z,387.40
2022-10-15T20:15:55.871Z,387.67
2022-10-15T20:21:03.086Z,387.73
2022-10-15T20:26:10.518Z,387.93
2022-10-15T20:31:17.918Z,387.60
2022-10-15T20:36:25.140Z,387.06
2022-10-15T20:41:32.337Z,386.32
2022-10-15T20:46:39.619Z,385.35
2022-10-15T20:51:46.814Z,384.96
2022-10-15T20:56:53.999Z,384.21
2022-10-15T21:02:01.198Z,384.42
2022-10-15T21:07:08.550Z,384.06
2022-10-15T21:12:15.782Z,384.40
2022-10-15T21:17:23.360Z,383.71
2022-10-15T21:22:30.197Z,382.71
2022-10-15T21:27:37.464Z,382.61
2022-10-15T21:32:44.730Z,382.49
2022-10-15T21:37:51.977Z,381.42
2022-10-15T21:42:59.200Z,381.02
2022-10-15T21:48:09.192Z,381.31
2022-10-15T21:53:16.377Z,380.26
2022-10-15T21:58:23.576Z,380.11
2022-10-15T22:03:30.809Z,379.75
2022-10-15T22:08:38.003Z,380.31
2022-10-15T22:13:47.133Z,380.58
2022-10-15T22:18:54.377Z,381.16
2022-10-15T22:24:01.567Z,380.34
2022-10-15T22:29:08.808Z,379.35
2022-10-15T22:34:15.969Z,379.15
2022-10-15T22:39:23.108Z,379.29
2022-10-15T22:44:30.362Z,379.10
2022-10-15T22:49:37.543Z,379.92
2022-10-15T22:54:44.769Z,380.11
2022-10-15T22:59:55.833Z,380.70
2022-10-15T23:04:59.129Z,379.88
2022-10-15T23:10:06.266Z,379.99
2022-10-15T23:15:13.494Z,380.76
2022-10-15T23:20:20.728Z,380.29
2022-10-15T23:25:28.010Z,379.28
2022-10-15T23:30:35.228Z,379.67
2022-10-15T23:35:42.562Z,378.63
2022-10-15T23:40:49.726Z,377.83
2022-10-15T23:45:56.890Z,377.28
2022-10-15T23:51:04.182Z,377.67
2022-10-15T23:56:11.346Z,377.25
